KVEL/VEL METAR and TAF weather

Enter ICAO airport designator
Station Type Date Time Source
KVEL METAR 2020/07/14 21:53 UTC NOAA

KVEL 142153Z AUTO 27010KT 10SM CLR 34/M01 A2998 RMK AO2 SLP065 T03441006


Station Type Date Time Source
KVEL Decoded METAR 2020/07/14 21:53 UTC NOAA

VERNAL AIRPORT, UT, United States (KVEL) 40-26N 109-30W 1604M
Jul 14, 2020 - 05:53 PM EDT / 2020.07.14 2153 UTC
Wind: from the W (270 degrees) at 12 MPH (10 KT):0
Visibility: 10 mile(s):0
Sky conditions: clear
Temperature: 93.9 F (34.4 C)
Dew Point: 30.9 F (-0.6 C)
Relative Humidity: 10%
Pressure (altimeter): 29.98 in. Hg (1015 hPa)
ob: KVEL 142153Z AUTO 27010KT 10SM CLR 34/M01 A2998 RMK AO2 SLP065 T03441006
cycle: 22

Station Type Date Time Source
KVEL TAF 2020/07/14 18:36 UTC NOAA

TAF KVEL 141735Z 1418/1518 14005KT P6SM FEW150
FM141900 19007KT P6SM FEW120 FEW250
FM142100 26015G24KT P6SM FEW120 SCT250
FM150300 35013KT P6SM FEW150 FEW250
FM150900 30005KT P6SM SKC

Example: see airport list